sensor_id;sensor_type;location;lat;lon;timestamp;temperature;humidity
975;DHT22;6115;49.296;10.602;2024-03-02T00:01:10;6.80;82.90
975;DHT22;6115;49.296;10.602;2024-03-02T00:06:11;6.70;82.70
975;DHT22;6115;49.296;10.602;2024-03-02T00:11:12;6.70;82.20
975;DHT22;6115;49.296;10.602;2024-03-02T00:16:14;6.70;81.60
975;DHT22;6115;49.296;10.602;2024-03-02T00:21:16;6.60;81.40
975;DHT22;6115;49.296;10.602;2024-03-02T00:26:20;6.50;81.30
975;DHT22;6115;49.296;10.602;2024-03-02T00:31:21;6.50;81.30
975;DHT22;6115;49.296;10.602;2024-03-02T00:36:25;6.50;81.70
975;DHT22;6115;49.296;10.602;2024-03-02T00:41:30;6.50;82.20
975;DHT22;6115;49.296;10.602;2024-03-02T00:46:35;6.50;82.80
975;DHT22;6115;49.296;10.602;2024-03-02T00:51:36;6.50;83.20
975;DHT22;6115;49.296;10.602;2024-03-02T00:56:37;6.50;83.30
975;DHT22;6115;49.296;10.602;2024-03-02T01:01:37;6.50;83.30
975;DHT22;6115;49.296;10.602;2024-03-02T01:06:38;6.60;83.40
975;DHT22;6115;49.296;10.602;2024-03-02T01:11:39;6.60;83.30
975;DHT22;6115;49.296;10.602;2024-03-02T01:16:39;6.60;83.10
975;DHT22;6115;49.296;10.602;2024-03-02T01:21:40;6.50;83.20
975;DHT22;6115;49.296;10.602;2024-03-02T01:26:41;6.50;83.20
975;DHT22;6115;49.296;10.602;2024-03-02T01:31:41;6.60;83.10
975;DHT22;6115;49.296;10.602;2024-03-02T01:36:45;6.60;82.80
975;DHT22;6115;49.296;10.602;2024-03-02T01:41:46;6.50;82.50
975;DHT22;6115;49.296;10.602;2024-03-02T01:46:46;6.50;82.40
975;DHT22;6115;49.296;10.602;2024-03-02T01:51:47;6.50;82.50
975;DHT22;6115;49.296;10.602;2024-03-02T01:56:47;6.50;82.40
975;DHT22;6115;49.296;10.602;2024-03-02T02:01:48;6.50;82.40
975;DHT22;6115;49.296;10.602;2024-03-02T02:06:48;6.50;82.60
975;DHT22;6115;49.296;10.602;2024-03-02T02:11:50;6.50;83.00
975;DHT22;6115;49.296;10.602;2024-03-02T02:16:51;6.50;83.20
975;DHT22;6115;49.296;10.602;2024-03-02T02:21:52;6.70;83.60
975;DHT22;6115;49.296;10.602;2024-03-02T02:26:53;6.60;83.70
975;DHT22;6115;49.296;10.602;2024-03-02T02:31:53;6.60;83.80
975;DHT22;6115;49.296;10.602;2024-03-02T02:36:54;6.60;83.50
975;DHT22;6115;49.296;10.602;2024-03-02T02:41:55;6.50;83.60
975;DHT22;6115;49.296;10.602;2024-03-02T02:46:58;6.60;83.70
975;DHT22;6115;49.296;10.602;2024-03-02T02:51:59;6.50;83.70
975;DHT22;6115;49.296;10.602;2024-03-02T02:56:59;6.50;83.90
975;DHT22;6115;49.296;10.602;2024-03-02T03:02:00;6.50;84.20
975;DHT22;6115;49.296;10.602;2024-03-02T03:07:00;6.60;84.20
975;DHT22;6115;49.296;10.602;2024-03-02T03:12:02;6.50;84.20
975;DHT22;6115;49.296;10.602;2024-03-02T03:17:02;6.60;84.30
975;DHT22;6115;49.296;10.602;2024-03-02T03:22:03;6.50;84.00
975;DHT22;6115;49.296;10.602;2024-03-02T03:27:04;6.50;84.40
975;DHT22;6115;49.296;10.602;2024-03-02T03:32:04;6.40;84.50
975;DHT22;6115;49.296;10.602;2024-03-02T03:37:07;6.40;84.70
975;DHT22;6115;49.296;10.602;2024-03-02T03:42:07;6.50;85.00
975;DHT22;6115;49.296;10.602;2024-03-02T03:47:08;6.50;85.00
975;DHT22;6115;49.296;10.602;2024-03-02T03:52:08;6.50;84.80
975;DHT22;6115;49.296;10.602;2024-03-02T03:57:09;6.60;84.90
975;DHT22;6115;49.296;10.602;2024-03-02T04:02:09;6.60;85.00
975;DHT22;6115;49.296;10.602;2024-03-02T04:07:12;6.60;84.70
975;DHT22;6115;49.296;10.602;2024-03-02T04:12:12;6.60;84.60
975;DHT22;6115;49.296;10.602;2024-03-02T04:17:13;6.50;84.50
975;DHT22;6115;49.296;10.602;2024-03-02T04:22:14;6.40;84.60
975;DHT22;6115;49.296;10.602;2024-03-02T04:27:14;6.40;84.50
975;DHT22;6115;49.296;10.602;2024-03-02T04:32:15;6.30;84.40
975;DHT22;6115;49.296;10.602;2024-03-02T04:37:15;6.20;84.70
975;DHT22;6115;49.296;10.602;2024-03-02T04:42:16;6.20;85.10
975;DHT22;6115;49.296;10.602;2024-03-02T04:47:16;6.20;85.00
975;DHT22;6115;49.296;10.602;2024-03-02T04:52:17;6.30;84.70
975;DHT22;6115;49.296;10.602;2024-03-02T04:57:18;6.20;84.90
975;DHT22;6115;49.296;10.602;2024-03-02T05:02:18;6.10;85.00
975;DHT22;6115;49.296;10.602;2024-03-02T05:07:19;6.20;85.10
975;DHT22;6115;49.296;10.602;2024-03-02T05:12:19;6.10;85.00
975;DHT22;6115;49.296;10.602;2024-03-02T05:17:40;6.00;84.90
975;DHT22;6115;49.296;10.602;2024-03-02T05:22:41;6.10;84.50
975;DHT22;6115;49.296;10.602;2024-03-02T05:27:41;6.10;84.00
975;DHT22;6115;49.296;10.602;2024-03-02T05:32:42;6.00;83.60
975;DHT22;6115;49.296;10.602;2024-03-02T05:37:42;5.90;83.20
975;DHT22;6115;49.296;10.602;2024-03-02T05:42:44;5.90;82.90
975;DHT22;6115;49.296;10.602;2024-03-02T05:47:44;5.80;82.80
975;DHT22;6115;49.296;10.602;2024-03-02T05:52:45;5.70;82.50
975;DHT22;6115;49.296;10.602;2024-03-02T05:57:45;5.70;82.40
975;DHT22;6115;49.296;10.602;2024-03-02T06:02:58;5.70;82.40
975;DHT22;6115;49.296;10.602;2024-03-02T06:07:59;5.60;82.20
975;DHT22;6115;49.296;10.602;2024-03-02T06:12:59;5.60;82.40
975;DHT22;6115;49.296;10.602;2024-03-02T06:18:00;5.60;82.50
975;DHT22;6115;49.296;10.602;2024-03-02T06:23:01;5.50;82.40
975;DHT22;6115;49.296;10.602;2024-03-02T06:28:01;5.40;82.10
975;DHT22;6115;49.296;10.602;2024-03-02T06:33:02;5.40;81.80
975;DHT22;6115;49.296;10.602;2024-03-02T06:38:04;5.40;81.70
975;DHT22;6115;49.296;10.602;2024-03-02T06:43:04;5.40;81.80
975;DHT22;6115;49.296;10.602;2024-03-02T06:48:05;5.40;82.10
975;DHT22;6115;49.296;10.602;2024-03-02T06:53:06;5.40;82.30
975;DHT22;6115;49.296;10.602;2024-03-02T06:58:06;5.40;82.60
975;DHT22;6115;49.296;10.602;2024-03-02T07:03:07;5.50;82.80
975;DHT22;6115;49.296;10.602;2024-03-02T07:08:07;5.50;83.20
975;DHT22;6115;49.296;10.602;2024-03-02T07:13:08;5.60;83.50
975;DHT22;6115;49.296;10.602;2024-03-02T07:18:09;5.70;83.90
975;DHT22;6115;49.296;10.602;2024-03-02T07:23:09;5.80;84.10
975;DHT22;6115;49.296;10.602;2024-03-02T07:28:10;5.90;84.40
975;DHT22;6115;49.296;10.602;2024-03-02T07:33:10;6.10;84.80
975;DHT22;6115;49.296;10.602;2024-03-02T07:38:11;6.20;85.60
975;DHT22;6115;49.296;10.602;2024-03-02T07:43:13;6.40;85.80
975;DHT22;6115;49.296;10.602;2024-03-02T07:48:14;6.70;86.10
975;DHT22;6115;49.296;10.602;2024-03-02T07:53:14;6.90;85.90
975;DHT22;6115;49.296;10.602;2024-03-02T07:58:15;7.20;85.40
975;DHT22;6115;49.296;10.602;2024-03-02T08:03:15;7.20;83.40
975;DHT22;6115;49.296;10.602;2024-03-02T08:08:16;7.50;83.00
975;DHT22;6115;49.296;10.602;2024-03-02T08:13:16;7.70;82.40
975;DHT22;6115;49.296;10.602;2024-03-02T08:18:17;7.90;80.90
975;DHT22;6115;49.296;10.602;2024-03-02T08:23:18;8.00;79.20
975;DHT22;6115;49.296;10.602;2024-03-02T08:28:19;8.10;78.10
975;DHT22;6115;49.296;10.602;2024-03-02T08:33:20;8.10;78.00
975;DHT22;6115;49.296;10.602;2024-03-02T08:38:20;8.20;77.10
975;DHT22;6115;49.296;10.602;2024-03-02T08:43:21;8.40;76.70
975;DHT22;6115;49.296;10.602;2024-03-02T08:48:23;8.50;75.10
975;DHT22;6115;49.296;10.602;2024-03-02T08:53:23;8.60;74.50
975;DHT22;6115;49.296;10.602;2024-03-02T08:58:24;8.70;73.80
975;DHT22;6115;49.296;10.602;2024-03-02T09:03:24;9.00;73.30
975;DHT22;6115;49.296;10.602;2024-03-02T09:08:25;9.10;71.50
975;DHT22;6115;49.296;10.602;2024-03-02T09:13:26;9.10;70.20
975;DHT22;6115;49.296;10.602;2024-03-02T09:18:26;9.30;69.60
975;DHT22;6115;49.296;10.602;2024-03-02T09:23:27;9.40;68.90
975;DHT22;6115;49.296;10.602;2024-03-02T09:28:28;10.00;66.00
975;DHT22;6115;49.296;10.602;2024-03-02T09:33:28;10.20;64.40
975;DHT22;6115;49.296;10.602;2024-03-02T09:38:30;10.30;63.90
975;DHT22;6115;49.296;10.602;2024-03-02T09:43:32;10.30;61.80
975;DHT22;6115;49.296;10.602;2024-03-02T09:48:32;10.60;61.90
975;DHT22;6115;49.296;10.602;2024-03-02T09:53:33;11.00;61.60
975;DHT22;6115;49.296;10.602;2024-03-02T09:58:34;11.60;59.80
975;DHT22;6115;49.296;10.602;2024-03-02T10:03:36;12.00;58.80
975;DHT22;6115;49.296;10.602;2024-03-02T10:08:43;12.70;57.20
975;DHT22;6115;49.296;10.602;2024-03-02T10:13:48;13.20;55.90
975;DHT22;6115;49.296;10.602;2024-03-02T10:18:49;13.60;54.00
975;DHT22;6115;49.296;10.602;2024-03-02T10:23:49;13.90;53.80
975;DHT22;6115;49.296;10.602;2024-03-02T10:28:50;14.10;52.60
975;DHT22;6115;49.296;10.602;2024-03-02T10:33:59;15.00;51.00
975;DHT22;6115;49.296;10.602;2024-03-02T10:39:04;15.70;50.90
975;DHT22;6115;49.296;10.602;2024-03-02T10:44:07;15.50;48.80
975;DHT22;6115;49.296;10.602;2024-03-02T10:49:07;14.90;49.50
975;DHT22;6115;49.296;10.602;2024-03-02T10:54:09;15.10;50.40
975;DHT22;6115;49.296;10.602;2024-03-02T10:59:34;14.70;49.30
975;DHT22;6115;49.296;10.602;2024-03-02T11:04:35;15.50;49.20
975;DHT22;6115;49.296;10.602;2024-03-02T11:09:45;15.90;48.30
975;DHT22;6115;49.296;10.602;2024-03-02T11:14:51;15.70;47.90
975;DHT22;6115;49.296;10.602;2024-03-02T11:19:52;15.70;48.80
975;DHT22;6115;49.296;10.602;2024-03-02T11:24:53;15.80;47.40
975;DHT22;6115;49.296;10.602;2024-03-02T11:29:54;16.10;47.30
975;DHT22;6115;49.296;10.602;2024-03-02T11:34:55;15.90;46.20
975;DHT22;6115;49.296;10.602;2024-03-02T11:39:56;15.90;46.50
975;DHT22;6115;49.296;10.602;2024-03-02T11:44:56;15.80;46.40
975;DHT22;6115;49.296;10.602;2024-03-02T11:49:58;16.10;46.70
975;DHT22;6115;49.296;10.602;2024-03-02T11:55:02;15.90;45.70
975;DHT22;6115;49.296;10.602;2024-03-02T12:00:04;16.30;45.80
975;DHT22;6115;49.296;10.602;2024-03-02T12:05:06;16.00;45.70
975;DHT22;6115;49.296;10.602;2024-03-02T12:10:08;16.00;45.40
975;DHT22;6115;49.296;10.602;2024-03-02T12:15:09;16.30;45.40
975;DHT22;6115;49.296;10.602;2024-03-02T12:20:12;16.90;45.50
975;DHT22;6115;49.296;10.602;2024-03-02T12:25:12;17.30;44.60
975;DHT22;6115;49.296;10.602;2024-03-02T12:30:16;17.80;43.50
975;DHT22;6115;49.296;10.602;2024-03-02T12:35:18;18.20;42.50
975;DHT22;6115;49.296;10.602;2024-03-02T12:40:19;18.00;41.80
975;DHT22;6115;49.296;10.602;2024-03-02T12:45:20;17.70;42.70
975;DHT22;6115;49.296;10.602;2024-03-02T12:50:24;17.80;42.80
975;DHT22;6115;49.296;10.602;2024-03-02T12:55:24;17.70;42.20
975;DHT22;6115;49.296;10.602;2024-03-02T13:00:25;17.60;42.50
975;DHT22;6115;49.296;10.602;2024-03-02T13:05:30;17.40;42.40
975;DHT22;6115;49.296;10.602;2024-03-02T13:10:31;17.40;42.50
975;DHT22;6115;49.296;10.602;2024-03-02T13:15:33;17.50;42.10
975;DHT22;6115;49.296;10.602;2024-03-02T13:20:33;17.50;42.80
975;DHT22;6115;49.296;10.602;2024-03-02T13:25:34;17.20;43.40
975;DHT22;6115;49.296;10.602;2024-03-02T13:30:35;17.60;43.30
975;DHT22;6115;49.296;10.602;2024-03-02T13:35:36;17.70;42.40
975;DHT22;6115;49.296;10.602;2024-03-02T13:40:36;18.00;41.40
975;DHT22;6115;49.296;10.602;2024-03-02T13:45:38;18.20;41.10
975;DHT22;6115;49.296;10.602;2024-03-02T13:50:39;17.80;41.60
975;DHT22;6115;49.296;10.602;2024-03-02T13:55:39;17.70;41.10
975;DHT22;6115;49.296;10.602;2024-03-02T14:00:42;18.00;39.00
975;DHT22;6115;49.296;10.602;2024-03-02T14:05:44;18.20;38.00
975;DHT22;6115;49.296;10.602;2024-03-02T14:10:46;17.90;38.90
975;DHT22;6115;49.296;10.602;2024-03-02T14:15:47;18.60;39.50
975;DHT22;6115;49.296;10.602;2024-03-02T14:20:47;18.60;39.00
975;DHT22;6115;49.296;10.602;2024-03-02T14:25:52;18.40;38.60
975;DHT22;6115;49.296;10.602;2024-03-02T14:30:53;18.10;39.10
975;DHT22;6115;49.296;10.602;2024-03-02T14:35:54;18.10;39.10
975;DHT22;6115;49.296;10.602;2024-03-02T14:40:54;18.00;39.20
975;DHT22;6115;49.296;10.602;2024-03-02T14:45:55;17.80;38.80
975;DHT22;6115;49.296;10.602;2024-03-02T14:50:57;17.20;39.00
975;DHT22;6115;49.296;10.602;2024-03-02T14:55:57;17.00;40.10
975;DHT22;6115;49.296;10.602;2024-03-02T15:00:58;16.90;39.80
975;DHT22;6115;49.296;10.602;2024-03-02T15:05:59;16.80;39.40
975;DHT22;6115;49.296;10.602;2024-03-02T15:10:59;16.60;39.20
975;DHT22;6115;49.296;10.602;2024-03-02T15:16:01;16.30;39.40
975;DHT22;6115;49.296;10.602;2024-03-02T15:21:01;16.10;39.70
975;DHT22;6115;49.296;10.602;2024-03-02T15:26:02;16.10;40.00
975;DHT22;6115;49.296;10.602;2024-03-02T15:31:03;16.10;40.20
975;DHT22;6115;49.296;10.602;2024-03-02T15:36:04;16.20;40.20
975;DHT22;6115;49.296;10.602;2024-03-02T15:41:05;15.70;41.00
975;DHT22;6115;49.296;10.602;2024-03-02T15:46:06;15.30;41.70
975;DHT22;6115;49.296;10.602;2024-03-02T15:51:07;15.20;42.70
975;DHT22;6115;49.296;10.602;2024-03-02T15:56:07;15.00;44.20
975;DHT22;6115;49.296;10.602;2024-03-02T16:01:08;14.70;44.80
975;DHT22;6115;49.296;10.602;2024-03-02T16:06:08;14.70;45.50
975;DHT22;6115;49.296;10.602;2024-03-02T16:11:09;14.40;46.00
975;DHT22;6115;49.296;10.602;2024-03-02T16:16:11;14.20;47.00
975;DHT22;6115;49.296;10.602;2024-03-02T16:21:11;13.80;47.60
975;DHT22;6115;49.296;10.602;2024-03-02T16:26:13;13.50;48.80
975;DHT22;6115;49.296;10.602;2024-03-02T16:31:13;13.30;49.50
975;DHT22;6115;49.296;10.602;2024-03-02T16:36:15;13.00;49.70
975;DHT22;6115;49.296;10.602;2024-03-02T16:41:16;12.70;50.70
975;DHT22;6115;49.296;10.602;2024-03-02T16:46:18;12.10;52.30
975;DHT22;6115;49.296;10.602;2024-03-02T16:51:18;11.70;53.10
975;DHT22;6115;49.296;10.602;2024-03-02T16:56:19;11.40;54.20
975;DHT22;6115;49.296;10.602;2024-03-02T17:01:20;11.00;55.60
975;DHT22;6115;49.296;10.602;2024-03-02T17:06:20;10.80;55.60
975;DHT22;6115;49.296;10.602;2024-03-02T17:11:21;10.60;56.80
975;DHT22;6115;49.296;10.602;2024-03-02T17:16:21;10.40;57.70
975;DHT22;6115;49.296;10.602;2024-03-02T17:21:23;10.10;58.50
975;DHT22;6115;49.296;10.602;2024-03-02T17:26:25;10.00;59.20
975;DHT22;6115;49.296;10.602;2024-03-02T17:31:26;9.80;60.00
975;DHT22;6115;49.296;10.602;2024-03-02T17:36:26;9.70;60.90
975;DHT22;6115;49.296;10.602;2024-03-02T17:41:27;9.50;62.20
975;DHT22;6115;49.296;10.602;2024-03-02T17:46:27;9.50;61.90
975;DHT22;6115;49.296;10.602;2024-03-02T17:51:28;9.30;62.00
975;DHT22;6115;49.296;10.602;2024-03-02T17:56:28;9.20;62.70
975;DHT22;6115;49.296;10.602;2024-03-02T18:01:30;9.10;63.00
975;DHT22;6115;49.296;10.602;2024-03-02T18:06:31;9.00;63.10
975;DHT22;6115;49.296;10.602;2024-03-02T18:11:31;8.90;63.20
975;DHT22;6115;49.296;10.602;2024-03-02T18:16:32;8.80;63.70
975;DHT22;6115;49.296;10.602;2024-03-02T18:21:33;8.50;63.80
975;DHT22;6115;49.296;10.602;2024-03-02T18:26:33;8.40;64.30
975;DHT22;6115;49.296;10.602;2024-03-02T18:31:35;8.30;64.90
975;DHT22;6115;49.296;10.602;2024-03-02T18:36:35;8.20;65.20
975;DHT22;6115;49.296;10.602;2024-03-02T18:41:36;8.20;65.60
975;DHT22;6115;49.296;10.602;2024-03-02T18:46:36;8.10;65.70
975;DHT22;6115;49.296;10.602;2024-03-02T18:51:37;8.00;66.20
975;DHT22;6115;49.296;10.602;2024-03-02T18:56:39;7.80;67.10
975;DHT22;6115;49.296;10.602;2024-03-02T19:01:40;7.70;68.00
975;DHT22;6115;49.296;10.602;2024-03-02T19:06:40;7.60;68.10
975;DHT22;6115;49.296;10.602;2024-03-02T19:11:41;7.60;68.30
975;DHT22;6115;49.296;10.602;2024-03-02T19:16:41;7.50;68.30
975;DHT22;6115;49.296;10.602;2024-03-02T19:21:44;7.40;68.20
975;DHT22;6115;49.296;10.602;2024-03-02T19:26:46;7.40;68.50
975;DHT22;6115;49.296;10.602;2024-03-02T19:31:46;7.30;68.70
975;DHT22;6115;49.296;10.602;2024-03-02T19:36:47;7.20;68.90
975;DHT22;6115;49.296;10.602;2024-03-02T19:41:48;7.10;69.20
975;DHT22;6115;49.296;10.602;2024-03-02T19:46:48;7.00;70.20
975;DHT22;6115;49.296;10.602;2024-03-02T19:51:49;6.90;70.80
975;DHT22;6115;49.296;10.602;2024-03-02T19:56:49;6.60;70.90
975;DHT22;6115;49.296;10.602;2024-03-02T20:01:50;6.50;72.50
975;DHT22;6115;49.296;10.602;2024-03-02T20:06:54;6.40;71.90
975;DHT22;6115;49.296;10.602;2024-03-02T20:11:55;6.30;72.60
975;DHT22;6115;49.296;10.602;2024-03-02T20:16:57;6.40;72.10
975;DHT22;6115;49.296;10.602;2024-03-02T20:21:58;6.30;71.60
975;DHT22;6115;49.296;10.602;2024-03-02T20:26:59;6.30;71.60
975;DHT22;6115;49.296;10.602;2024-03-02T20:31:59;6.20;71.50
975;DHT22;6115;49.296;10.602;2024-03-02T20:37:00;6.10;71.40
975;DHT22;6115;49.296;10.602;2024-03-02T20:42:01;6.10;72.00
975;DHT22;6115;49.296;10.602;2024-03-02T20:47:01;6.00;72.00
975;DHT22;6115;49.296;10.602;2024-03-02T20:52:03;5.90;72.00
975;DHT22;6115;49.296;10.602;2024-03-02T20:57:04;5.70;72.20
975;DHT22;6115;49.296;10.602;2024-03-02T21:02:06;5.70;72.60
975;DHT22;6115;49.296;10.602;2024-03-02T21:07:06;5.60;73.00
975;DHT22;6115;49.296;10.602;2024-03-02T21:12:07;5.50;73.20
975;DHT22;6115;49.296;10.602;2024-03-02T21:17:09;5.50;73.70
975;DHT22;6115;49.296;10.602;2024-03-02T21:22:09;5.30;75.40
975;DHT22;6115;49.296;10.602;2024-03-02T21:27:10;5.40;76.70
975;DHT22;6115;49.296;10.602;2024-03-02T21:32:11;5.40;77.90
975;DHT22;6115;49.296;10.602;2024-03-02T21:37:12;5.30;78.00
975;DHT22;6115;49.296;10.602;2024-03-02T21:42:12;5.20;77.80
975;DHT22;6115;49.296;10.602;2024-03-02T21:47:13;5.00;77.60
975;DHT22;6115;49.296;10.602;2024-03-02T21:52:15;4.90;77.70
975;DHT22;6115;49.296;10.602;2024-03-02T21:57:15;4.90;77.40
975;DHT22;6115;49.296;10.602;2024-03-02T22:02:22;4.80;77.50
975;DHT22;6115;49.296;10.602;2024-03-02T22:07:22;4.80;78.50
975;DHT22;6115;49.296;10.602;2024-03-02T22:12:23;5.10;80.00
975;DHT22;6115;49.296;10.602;2024-03-02T22:17:23;5.20;81.10
975;DHT22;6115;49.296;10.602;2024-03-02T22:22:28;5.20;81.00
975;DHT22;6115;49.296;10.602;2024-03-02T22:27:28;5.20;80.10
975;DHT22;6115;49.296;10.602;2024-03-02T22:32:29;5.20;80.10
975;DHT22;6115;49.296;10.602;2024-03-02T22:37:29;5.20;80.00
975;DHT22;6115;49.296;10.602;2024-03-02T22:42:30;5.20;79.60
975;DHT22;6115;49.296;10.602;2024-03-02T22:47:31;5.10;79.20
975;DHT22;6115;49.296;10.602;2024-03-02T22:52:32;5.10;78.90
975;DHT22;6115;49.296;10.602;2024-03-02T22:57:33;5.10;79.20
975;DHT22;6115;49.296;10.602;2024-03-02T23:02:33;5.10;79.30
975;DHT22;6115;49.296;10.602;2024-03-02T23:07:34;5.10;79.00
975;DHT22;6115;49.296;10.602;2024-03-02T23:12:34;5.00;78.90
975;DHT22;6115;49.296;10.602;2024-03-02T23:17:35;5.00;79.00
975;DHT22;6115;49.296;10.602;2024-03-02T23:22:36;5.00;79.00
975;DHT22;6115;49.296;10.602;2024-03-02T23:27:37;5.00;79.30
975;DHT22;6115;49.296;10.602;2024-03-02T23:32:37;4.90;79.70
975;DHT22;6115;49.296;10.602;2024-03-02T23:37:38;5.00;79.90
975;DHT22;6115;49.296;10.602;2024-03-02T23:42:38;4.90;79.60
975;DHT22;6115;49.296;10.602;2024-03-02T23:47:40;4.90;79.70
975;DHT22;6115;49.296;10.602;2024-03-02T23:52:40;4.70;79.60
975;DHT22;6115;49.296;10.602;2024-03-02T23:57:41;4.70;79.60
